Hakuhomaru — JJ4011 — position and weather

sailwx.info

Track history (hours):
 
Tides and Currents Weather Stations Pressure Air Temp Water Temp Dewpoint Dewpoint Depression Visibility Wind Speed Wind Dir Waves Ship Positions

Hakuhomaru

Last reported at 2014-Sep-19 04:33 UTC. Time now 2014-Sep-19 05:48 UTC.
Position N 34°41' E 135°12'.

Length 38 m; draft 3.3 m.

Type: Tug. MMSI: 431401584.

Date/timePositionNaut miles runAvg speedWind from/ knotsBaromVisibWave heightAir tempDewpointWater temp
2014-Sep-19 04:33N 34°41' E 135°12'0 0.0
2014-Sep-19 03:33N 34°41' E 135°12'4 4.0
2014-Sep-19 02:33N 34°41' E 135°17'2 1.5
2014-Sep-19 01:33N 34°40' E 135°18'3 2.9
2014-Sep-19 00:33N 34°39' E 135°15'0 0.2
2014-Sep-18 23:18N 34°39' E 135°15'0 0.2
2014-Sep-18 22:33N 34°39' E 135°15'3 2.6
2014-Sep-18 21:33N 34°40' E 135°12'1 0.7
2014-Sep-18 20:33N 34°41' E 135°12'0 0.0
2014-Sep-17 23:17N 34°41' E 135°12'1 1.8
2014-Sep-17 22:33N 34°40' E 135°14'1 0.9
2014-Sep-17 21:33N 34°40' E 135°15'0 0.0
2014-Sep-17 20:33N 34°40' E 135°15'0 0.0
2014-Sep-17 19:33N 34°40' E 135°15'0 0.0
2014-Sep-17 18:33N 34°40' E 135°15'0 0.0
2014-Sep-17 17:33N 34°40' E 135°15'2 2.2
2014-Sep-17 16:33N 34°41' E 135°17'0 0.0
2014-Sep-17 15:33N 34°41' E 135°17'0 0.0
2014-Sep-17 14:33N 34°41' E 135°17'2 2.1
2014-Sep-17 13:33N 34°41' E 135°15'0 0.3
2014-Sep-17 12:33N 34°41' E 135°15'0 0.0
2014-Sep-17 11:33N 34°41' E 135°15'1 0.7
2014-Sep-17 10:33N 34°41' E 135°14'0 0.0
2014-Sep-17 09:33N 34°41' E 135°14'0 0.0
2014-Sep-17 08:33N 34°41' E 135°14'1 0.6
2014-Sep-17 07:33N 34°41' E 135°15'2 2.4
2014-Sep-17 06:33N 34°41' E 135°12'0 0.0
2014-Sep-17 05:33N 34°41' E 135°12'0 0.0
2014-Sep-17 04:33N 34°41' E 135°12'0 0.0
2014-Sep-17 03:33N 34°41' E 135°12'3 3.1
2014-Sep-17 02:33N 34°41' E 135°16'3 3.1
2014-Sep-17 01:33N 34°41' E 135°12'0 0.0
2014-Sep-17 00:33N 34°41' E 135°12'0 0.0
2014-Sep-16 23:33N 34°41' E 135°12'0 0.0
2014-Sep-16 22:33N 34°41' E 135°12'0 0.0
2014-Sep-16 06:33N 34°41' E 135°12'4 3.9
2014-Sep-16 05:33N 34°41' E 135°17'1 0.7
2014-Sep-16 04:33N 34°41' E 135°18'4 4.3
2014-Sep-16 03:33N 34°41' E 135°12'0 0.0
2014-Sep-16 02:33N 34°41' E 135°12'0 0.0
2014-Sep-16 01:33N 34°41' E 135°12'0 0.1
2014-Sep-16 00:33N 34°41' E 135°12'2 2.5
2014-Sep-15 23:33N 34°42' E 135°15'3 2.6
2014-Sep-15 22:33N 34°39' E 135°15'1 0.9
2014-Sep-15 21:33N 34°40' E 135°15'2 2.2
2014-Sep-15 20:33N 34°41' E 135°12'0 0.0
2014-Sep-15 10:06N 34°41' E 135°12'2 4.6
2014-Sep-15 09:33N 34°41' E 135°15'2 1.8
2014-Sep-15 08:33N 34°39' E 135°15'3 2.8
2014-Sep-15 07:33N 34°41' E 135°12'0 0.0
2014-Sep-15 06:33N 34°41' E 135°12'0 0.0
2014-Sep-15 05:33N 34°41' E 135°12'0 0.0
2014-Sep-15 04:33N 34°41' E 135°12'0 0.0
2014-Sep-15 03:33N 34°41' E 135°12'2 1.9
2014-Sep-15 02:33N 34°41' E 135°15'3 2.7
2014-Sep-15 01:33N 34°40' E 135°18'1 0.8
2014-Sep-15 00:33N 34°41' E 135°17'4 3.9
2014-Sep-14 23:33N 34°41' E 135°12'0 0.0
2014-Sep-14 09:22N 34°41' E 135°12'6 7.3
2014-Sep-14 08:33N 34°37' E 135°18'7 7.5
2014-Sep-14 07:33N 34°33' E 135°26'1 0.5
2014-Sep-14 06:33N 34°33' E 135°27'0 0.0
2014-Sep-14 05:27N 34°33' E 135°27'0 0.0
2014-Sep-14 04:34N 34°33' E 135°27'0 0.0
2014-Sep-14 03:31N 34°33' E 135°27'3 2.6
2014-Sep-14 02:18N 34°32' E 135°23'3 4.3
2014-Sep-14 01:33N 34°34' E 135°20'10 0.7
2014-Sep-13 12:08N 34°41' E 135°12'3 5.2
2014-Sep-13 11:33N 34°42' E 135°16'0 0.2
2014-Sep-13 10:33N 34°42' E 135°16'0 0.0
2014-Sep-13 09:33N 34°42' E 135°16'0 0.0
2014-Sep-13 08:33N 34°42' E 135°16'2 1.5
2014-Sep-13 07:33N 34°41' E 135°17'1 1.2
2014-Sep-13 06:33N 34°40' E 135°18'1 1.1
2014-Sep-13 05:33N 34°41' E 135°17'0 0.0
2014-Sep-13 04:33N 34°41' E 135°17'0 0.0
2014-Sep-13 03:33N 34°41' E 135°17'0 0.3
2014-Sep-13 02:33N 34°41' E 135°17'3 3.5
2014-Sep-13 01:33N 34°41' E 135°13'1 0.7
2014-Sep-13 00:33N 34°41' E 135°12'0 0.0
2014-Sep-12 23:33N 34°41' E 135°12'3 2.7
2014-Sep-12 22:33N 34°41' E 135°16'0 0.5
2014-Sep-12 21:33N 34°41' E 135°15'2 2.3
2014-Sep-12 20:33N 34°41' E 135°12'0 0.0
2014-Sep-12 06:33N 34°41' E 135°12'0 0.0
2014-Sep-12 05:33N 34°41' E 135°12'6 6.4
2014-Sep-12 04:33N 34°40' E 135°20'3 3.3
2014-Sep-12 03:33N 34°38' E 135°23'3 2.6
2014-Sep-12 02:33N 34°39' E 135°20'3 2.7
2014-Sep-12 01:32N 34°41' E 135°17'0 0.0
2014-Sep-12 00:33N 34°41' E 135°17'1 1.3
2014-Sep-11 23:33N 34°42' E 135°18'1 1.0
2014-Sep-11 22:33N 34°41' E 135°18'3 2.8
2014-Sep-11 21:33N 34°41' E 135°15'2 2.2
2014-Sep-11 20:33N 34°41' E 135°12'0 0.0
2014-Sep-09 22:05N 34°41' E 135°12'2 3.8
2014-Sep-09 21:33N 34°40' E 135°15'0 0.5
2014-Sep-09 20:33N 34°40' E 135°15'0 0.0
2014-Sep-09 19:33N 34°40' E 135°15'0 0.0
2014-Sep-09 18:33N 34°40' E 135°15'0 0.0
2014-Sep-09 17:33N 34°40' E 135°15'0 0.5
2014-Sep-09 16:33N 34°40' E 135°14'0 0.4
2014-Sep-09 15:33N 34°40' E 135°14'1 0.8
2014-Sep-09 14:33N 34°40' E 135°15'0 0.0
2014-Sep-09 13:33N 34°40' E 135°15'0 0.0
2014-Sep-09 12:33N 34°40' E 135°15'0 0.5
2014-Sep-09 11:33N 34°40' E 135°15'0 0.1
2014-Sep-09 10:33N 34°40' E 135°15'2 2.1
2014-Sep-09 09:33N 34°41' E 135°12'0 0.0
2014-Sep-09 08:33N 34°41' E 135°12'0 0.0
2014-Sep-09 07:33N 34°41' E 135°12'2 1.7
2014-Sep-09 06:33N 34°40' E 135°14'1 0.9
2014-Sep-09 05:33N 34°39' E 135°14'2 2.2
2014-Sep-09 04:33N 34°41' E 135°12'  
Track history (hours):
 
Tides and Currents Weather Stations Pressure Air Temp Water Temp Dewpoint Dewpoint Depression Visibility Wind Speed Wind Dir Waves Ship Positions

Hakuhomaru

Last reported at 2014-Sep-19 04:33 UTC. Time now 2014-Sep-19 05:48 UTC.
Position N 34°41' E 135°12'.

Length 38 m; draft 3.3 m.

Type: Tug. MMSI: 431401584.

Date/timePositionNaut miles runAvg speedWind from/ knotsBaromVisibWave heightAir tempDewpointWater temp
2014-Sep-19 04:33N 34°41' E 135°12'0 0.0
2014-Sep-19 03:33N 34°41' E 135°12'4 4.0
2014-Sep-19 02:33N 34°41' E 135°17'2 1.5
2014-Sep-19 01:33N 34°40' E 135°18'3 2.9
2014-Sep-19 00:33N 34°39' E 135°15'0 0.2
2014-Sep-18 23:18N 34°39' E 135°15'0 0.2
2014-Sep-18 22:33N 34°39' E 135°15'3 2.6
2014-Sep-18 21:33N 34°40' E 135°12'1 0.7
2014-Sep-18 20:33N 34°41' E 135°12'0 0.0
2014-Sep-17 23:17N 34°41' E 135°12'1 1.8
2014-Sep-17 22:33N 34°40' E 135°14'1 0.9
2014-Sep-17 21:33N 34°40' E 135°15'0 0.0
2014-Sep-17 20:33N 34°40' E 135°15'0 0.0
2014-Sep-17 19:33N 34°40' E 135°15'0 0.0
2014-Sep-17 18:33N 34°40' E 135°15'0 0.0
2014-Sep-17 17:33N 34°40' E 135°15'2 2.2
2014-Sep-17 16:33N 34°41' E 135°17'0 0.0
2014-Sep-17 15:33N 34°41' E 135°17'0 0.0
2014-Sep-17 14:33N 34°41' E 135°17'2 2.1
2014-Sep-17 13:33N 34°41' E 135°15'0 0.3
2014-Sep-17 12:33N 34°41' E 135°15'0 0.0
2014-Sep-17 11:33N 34°41' E 135°15'1 0.7
2014-Sep-17 10:33N 34°41' E 135°14'0 0.0
2014-Sep-17 09:33N 34°41' E 135°14'0 0.0
2014-Sep-17 08:33N 34°41' E 135°14'1 0.6
2014-Sep-17 07:33N 34°41' E 135°15'2 2.4
2014-Sep-17 06:33N 34°41' E 135°12'0 0.0
2014-Sep-17 05:33N 34°41' E 135°12'0 0.0
2014-Sep-17 04:33N 34°41' E 135°12'0 0.0
2014-Sep-17 03:33N 34°41' E 135°12'3 3.1
2014-Sep-17 02:33N 34°41' E 135°16'3 3.1
2014-Sep-17 01:33N 34°41' E 135°12'0 0.0
2014-Sep-17 00:33N 34°41' E 135°12'0 0.0
2014-Sep-16 23:33N 34°41' E 135°12'0 0.0
2014-Sep-16 22:33N 34°41' E 135°12'0 0.0
2014-Sep-16 06:33N 34°41' E 135°12'4 3.9
2014-Sep-16 05:33N 34°41' E 135°17'1 0.7
2014-Sep-16 04:33N 34°41' E 135°18'4 4.3
2014-Sep-16 03:33N 34°41' E 135°12'0 0.0
2014-Sep-16 02:33N 34°41' E 135°12'0 0.0
2014-Sep-16 01:33N 34°41' E 135°12'0 0.1
2014-Sep-16 00:33N 34°41' E 135°12'2 2.5
2014-Sep-15 23:33N 34°42' E 135°15'3 2.6
2014-Sep-15 22:33N 34°39' E 135°15'1 0.9
2014-Sep-15 21:33N 34°40' E 135°15'2 2.2
2014-Sep-15 20:33N 34°41' E 135°12'0 0.0
2014-Sep-15 10:06N 34°41' E 135°12'2 4.6
2014-Sep-15 09:33N 34°41' E 135°15'2 1.8
2014-Sep-15 08:33N 34°39' E 135°15'3 2.8
2014-Sep-15 07:33N 34°41' E 135°12'0 0.0
2014-Sep-15 06:33N 34°41' E 135°12'0 0.0
2014-Sep-15 05:33N 34°41' E 135°12'0 0.0
2014-Sep-15 04:33N 34°41' E 135°12'0 0.0
2014-Sep-15 03:33N 34°41' E 135°12'2 1.9
2014-Sep-15 02:33N 34°41' E 135°15'3 2.7
2014-Sep-15 01:33N 34°40' E 135°18'1 0.8
2014-Sep-15 00:33N 34°41' E 135°17'4 3.9
2014-Sep-14 23:33N 34°41' E 135°12'0 0.0
2014-Sep-14 09:22N 34°41' E 135°12'6 7.3
2014-Sep-14 08:33N 34°37' E 135°18'7 7.5
2014-Sep-14 07:33N 34°33' E 135°26'1 0.5
2014-Sep-14 06:33N 34°33' E 135°27'0 0.0
2014-Sep-14 05:27N 34°33' E 135°27'0 0.0
2014-Sep-14 04:34N 34°33' E 135°27'0 0.0
2014-Sep-14 03:31N 34°33' E 135°27'3 2.6
2014-Sep-14 02:18N 34°32' E 135°23'3 4.3
2014-Sep-14 01:33N 34°34' E 135°20'10 0.7
2014-Sep-13 12:08N 34°41' E 135°12'3 5.2
2014-Sep-13 11:33N 34°42' E 135°16'0 0.2
2014-Sep-13 10:33N 34°42' E 135°16'0 0.0
2014-Sep-13 09:33N 34°42' E 135°16'0 0.0
2014-Sep-13 08:33N 34°42' E 135°16'2 1.5
2014-Sep-13 07:33N 34°41' E 135°17'1 1.2
2014-Sep-13 06:33N 34°40' E 135°18'1 1.1
2014-Sep-13 05:33N 34°41' E 135°17'0 0.0
2014-Sep-13 04:33N 34°41' E 135°17'0 0.0
2014-Sep-13 03:33N 34°41' E 135°17'0 0.3
2014-Sep-13 02:33N 34°41' E 135°17'3 3.5
2014-Sep-13 01:33N 34°41' E 135°13'1 0.7
2014-Sep-13 00:33N 34°41' E 135°12'0 0.0
2014-Sep-12 23:33N 34°41' E 135°12'3 2.7
2014-Sep-12 22:33N 34°41' E 135°16'0 0.5
2014-Sep-12 21:33N 34°41' E 135°15'2 2.3
2014-Sep-12 20:33N 34°41' E 135°12'0 0.0
2014-Sep-12 06:33N 34°41' E 135°12'0 0.0
2014-Sep-12 05:33N 34°41' E 135°12'6 6.4
2014-Sep-12 04:33N 34°40' E 135°20'3 3.3
2014-Sep-12 03:33N 34°38' E 135°23'3 2.6
2014-Sep-12 02:33N 34°39' E 135°20'3 2.7
2014-Sep-12 01:32N 34°41' E 135°17'0 0.0
2014-Sep-12 00:33N 34°41' E 135°17'1 1.3
2014-Sep-11 23:33N 34°42' E 135°18'1 1.0
2014-Sep-11 22:33N 34°41' E 135°18'3 2.8
2014-Sep-11 21:33N 34°41' E 135°15'2 2.2
2014-Sep-11 20:33N 34°41' E 135°12'0 0.0
2014-Sep-09 22:05N 34°41' E 135°12'2 3.8
2014-Sep-09 21:33N 34°40' E 135°15'0 0.5
2014-Sep-09 20:33N 34°40' E 135°15'0 0.0
2014-Sep-09 19:33N 34°40' E 135°15'0 0.0
2014-Sep-09 18:33N 34°40' E 135°15'0 0.0
2014-Sep-09 17:33N 34°40' E 135°15'0 0.5
2014-Sep-09 16:33N 34°40' E 135°14'0 0.4
2014-Sep-09 15:33N 34°40' E 135°14'1 0.8
2014-Sep-09 14:33N 34°40' E 135°15'0 0.0
2014-Sep-09 13:33N 34°40' E 135°15'0 0.0
2014-Sep-09 12:33N 34°40' E 135°15'0 0.5
2014-Sep-09 11:33N 34°40' E 135°15'0 0.1
2014-Sep-09 10:33N 34°40' E 135°15'2 2.1
2014-Sep-09 09:33N 34°41' E 135°12'0 0.0
2014-Sep-09 08:33N 34°41' E 135°12'0 0.0
2014-Sep-09 07:33N 34°41' E 135°12'2 1.7
2014-Sep-09 06:33N 34°40' E 135°14'1 0.9
2014-Sep-09 05:33N 34°39' E 135°14'2 2.2
2014-Sep-09 04:33N 34°41' E 135°12'  

Dump ship's entire track history